Silesia, Montana
Current Conditions -  °F | °C
As of 10:53 PM on Saturday 25 Oct 2014 (Local Time) from KBIL Reporting Station
Broken Clouds Broken Clouds  
Wind Chill: 53°   Ceiling: 20000
Heat Index: 53°   Visibility: 10mi
Dew Point: 35°   Wind: 9mph
Humidity: 50%   Direction: 250°WSW
Pressure: 29.68"   Gusts: NA
Location:  45.5061°N, 109.005°W
Report Text: KBIL 260453Z 25008KT 10SM BKN200 12/02 A2968 RMK AO2 SLP045 T01170017
Loading
Personal Weather Stations






























Interactive Weather Map
Tropical Storm Tracking
New forecast layout! Learn more

10-Day Weather Forecast

Advertisements
Track Severe Weather on mobile